Time;durP1;ratioP1;P1;durP2;ratioP2;P2;SDS_P1;SDS_P2;PMS_P1;PMS_P2;Temp;Humidity;BMP_temperature;BMP_pressure;BME280_temperature;BME280_humidity;BME280_pressure;Samples;Min_cycle;Max_cycle;Signal;HPM_P1;HPM_P2
2022/07/11 00:00:24;;;;;;;2.90;1.77;;;22.10;99.90;;;;;;1043122;28;20032;-67
2022/07/11 00:00:55;;;;;;;2.77;1.57;;;22.10;99.90;;;;;;1042607;28;20584;-66
2022/07/11 00:01:25;;;;;;;4.63;2.00;;;22.10;99.90;;;;;;1043048;28;20040;-68
2022/07/11 00:01:57;;;;;;;2.20;1.30;;;22.10;99.90;;;;;;1042557;28;20028;-68
2022/07/11 00:02:28;;;;;;;2.42;1.20;;;22.10;99.90;;;;;;1043391;28;20028;-69
2022/07/11 00:02:58;;;;;;;4.30;1.43;;;22.10;99.90;;;;;;1042920;28;20036;-68
2022/07/11 00:03:29;;;;;;;3.93;1.20;;;22.10;99.90;;;;;;1043223;28;20270;-67
2022/07/11 00:03:59;;;;;;;4.67;1.93;;;22.10;99.90;;;;;;1042995;28;20057;-68
2022/07/11 00:04:33;;;;;;;2.47;1.77;;;22.10;99.90;;;;;;1043354;28;20013;-67
2022/07/11 00:05:04;;;;;;;2.42;1.58;;;22.10;99.90;;;;;;1042448;28;20037;-68
2022/07/11 00:05:35;;;;;;;4.53;2.08;;;22.10;99.90;;;;;;1042830;28;20505;-67
2022/07/11 00:06:05;;;;;;;4.37;1.73;;;22.10;99.90;;;;;;1042773;28;20630;-67
2022/07/11 00:06:36;;;;;;;1.50;1.00;;;22.10;99.90;;;;;;1043016;28;20103;-67
2022/07/11 00:07:06;;;;;;;2.30;1.23;;;22.10;99.90;;;;;;1042848;28;20056;-67
2022/07/11 00:07:37;;;;;;;2.23;1.43;;;22.10;99.90;;;;;;1043178;28;20202;-66
2022/07/11 00:08:08;;;;;;;5.65;2.10;;;22.10;99.90;;;;;;1043618;28;20061;-66
2022/07/11 00:08:39;;;;;;;5.00;1.40;;;22.10;99.90;;;;;;1047020;28;20021;-67
2022/07/11 00:09:09;;;;;;;3.10;1.93;;;22.10;99.90;;;;;;1044809;28;20025;-67
2022/07/11 00:09:40;;;;;;;3.50;1.73;;;22.10;99.90;;;;;;1043110;28;20202;-66
2022/07/11 00:10:11;;;;;;;3.10;1.53;;;22.10;99.90;;;;;;1042699;28;20025;-68
2022/07/11 00:10:43;;;;;;;4.97;1.93;;;22.10;99.90;;;;;;1043206;28;20447;-68
2022/07/11 00:11:13;;;;;;;4.70;1.75;;;22.10;99.90;;;;;;1046955;28;20024;-66
2022/07/11 00:11:44;;;;;;;3.50;2.20;;;22.10;99.90;;;;;;1043091;28;20052;-67
2022/07/11 00:12:15;;;;;;;2.17;1.30;;;22.10;99.90;;;;;;1043568;28;20085;-68
2022/07/11 00:12:45;;;;;;;2.50;1.53;;;22.10;99.90;;;;;;1042807;28;20223;-67
2022/07/11 00:13:16;;;;;;;5.10;1.67;;;22.10;99.90;;;;;;1042850;28;20031;-67
2022/07/11 00:13:46;;;;;;;3.03;2.10;;;22.10;99.90;;;;;;1042869;28;20029;-68
2022/07/11 00:14:18;;;;;;;3.00;1.60;;;22.10;99.90;;;;;;1043444;28;20669;-67
2022/07/11 00:14:48;;;;;;;2.97;1.50;;;22.10;99.90;;;;;;1043110;28;20052;-68
2022/07/11 00:15:19;;;;;;;3.07;1.47;;;22.10;99.90;;;;;;1043293;28;20024;-67
2022/07/11 00:15:49;;;;;;;4.20;1.40;;;22.10;99.90;;;;;;1042845;28;20025;-68
2022/07/11 00:16:20;;;;;;;2.47;1.50;;;22.10;99.90;;;;;;1043436;28;20052;-66
2022/07/11 00:16:55;;;;;;;2.53;1.50;;;22.00;99.90;;;;;;1042873;28;20032;-67
2022/07/11 00:17:26;;;;;;;4.45;2.20;;;22.00;99.90;;;;;;1043258;28;20342;-67
2022/07/11 00:17:57;;;;;;;3.37;1.60;;;22.00;99.90;;;;;;1042306;28;20132;-69
2022/07/11 00:18:27;;;;;;;2.20;1.30;;;22.00;99.90;;;;;;1038247;28;20033;-67
2022/07/11 00:18:58;;;;;;;4.00;1.67;;;22.00;99.90;;;;;;1038438;28;20715;-67
2022/07/11 00:19:28;;;;;;;2.40;1.20;;;22.00;99.90;;;;;;1038890;28;20100;-68
2022/07/11 00:19:59;;;;;;;4.63;1.83;;;22.00;99.90;;;;;;1042458;28;20542;-66
2022/07/11 00:20:30;;;;;;;3.70;1.88;;;22.00;99.90;;;;;;1042690;28;20035;-67
2022/07/11 00:21:00;;;;;;;4.73;1.60;;;22.00;99.90;;;;;;1042684;28;20399;-66
2022/07/11 00:21:31;;;;;;;1.97;1.33;;;22.00;99.90;;;;;;1042666;28;20020;-67
2022/07/11 00:22:02;;;;;;;4.28;2.00;;;22.00;99.90;;;;;;1038608;28;20010;-67
2022/07/11 00:22:33;;;;;;;3.67;1.50;;;22.00;99.90;;;;;;1042767;28;20013;-68
2022/07/11 00:23:03;;;;;;;2.97;1.60;;;22.00;99.90;;;;;;1042613;28;20088;-67
2022/07/11 00:23:34;;;;;;;3.77;1.70;;;22.00;99.90;;;;;;1038963;28;20014;-67
2022/07/11 00:24:07;;;;;;;2.55;1.73;;;22.00;99.90;;;;;;1042609;28;20055;-66
2022/07/11 00:24:38;;;;;;;3.15;1.85;;;22.00;99.90;;;;;;1042730;28;20049;-67
2022/07/11 00:25:09;;;;;;;4.32;1.90;;;22.00;99.90;;;;;;1042719;28;20013;-67
2022/07/11 00:25:39;;;;;;;3.40;1.80;;;22.00;99.90;;;;;;1042786;28;20024;-67
2022/07/11 00:26:10;;;;;;;3.83;1.67;;;22.00;99.90;;;;;;1042614;28;20100;-67
2022/07/11 00:26:40;;;;;;;2.60;1.10;;;22.00;99.90;;;;;;1043161;28;20100;-67
2022/07/11 00:27:12;;;;;;;3.67;1.50;;;22.00;99.90;;;;;;1042357;28;20028;-68
2022/07/11 00:27:43;;;;;;;3.65;1.38;;;22.00;99.90;;;;;;1042791;28;20656;-67
2022/07/11 00:28:13;;;;;;;3.07;1.40;;;22.00;99.90;;;;;;1038419;28;20407;-68
2022/07/11 00:28:44;;;;;;;2.67;1.83;;;22.00;99.90;;;;;;1039094;28;20104;-68
2022/07/11 00:29:15;;;;;;;3.43;1.60;;;22.00;99.90;;;;;;1042702;28;20520;-67
2022/07/11 00:29:46;;;;;;;3.72;1.60;;;22.00;99.90;;;;;;1042851;28;20079;-67
2022/07/11 00:30:17;;;;;;;2.83;1.73;;;22.00;99.90;;;;;;1042528;28;20067;-68
2022/07/11 00:30:48;;;;;;;2.78;1.58;;;22.00;99.90;;;;;;1042915;28;20017;-67
2022/07/11 00:31:19;;;;;;;2.23;1.50;;;22.00;99.90;;;;;;1042408;28;20049;-67
2022/07/11 00:31:50;;;;;;;3.07;1.60;;;22.00;99.90;;;;;;1042866;28;20017;-67
2022/07/11 00:32:20;;;;;;;3.43;1.60;;;22.00;99.90;;;;;;1042740;28;20112;-67
2022/07/11 00:32:51;;;;;;;3.43;2.00;;;22.00;99.90;;;;;;1042761;28;20586;-67
2022/07/11 00:33:22;;;;;;;4.80;1.77;;;22.00;99.90;;;;;;1042595;28;20413;-69
2022/07/11 00:33:52;;;;;;;2.45;1.75;;;22.00;99.90;;;;;;1042594;28;20023;-67
2022/07/11 00:34:23;;;;;;;5.00;1.73;;;22.00;99.90;;;;;;1042804;28;20039;-66
2022/07/11 00:34:54;;;;;;;4.03;2.03;;;22.00;99.90;;;;;;1042787;28;20020;-67
2022/07/11 00:35:24;;;;;;;3.50;1.40;;;22.00;99.90;;;;;;1042661;28;20104;-68
2022/07/11 00:35:55;;;;;;;3.20;1.80;;;22.00;99.90;;;;;;1042786;28;20047;-67
2022/07/11 00:36:26;;;;;;;3.47;1.57;;;22.00;99.90;;;;;;1042689;28;20072;-68
2022/07/11 00:36:56;;;;;;;2.60;1.40;;;22.00;99.90;;;;;;1042649;28;20100;-67
2022/07/11 00:37:27;;;;;;;5.07;1.67;;;22.00;99.90;;;;;;1042825;28;20013;-67
2022/07/11 00:37:58;;;;;;;3.83;2.00;;;22.00;99.90;;;;;;1042740;28;20014;-67
2022/07/11 00:38:28;;;;;;;3.07;1.60;;;22.00;99.90;;;;;;1042900;28;20020;-68
2022/07/11 00:38:59;;;;;;;3.93;1.80;;;22.00;99.90;;;;;;1042591;28;20024;-67
2022/07/11 00:39:30;;;;;;;3.63;1.60;;;22.00;99.90;;;;;;1042993;28;20457;-68
2022/07/11 00:40:01;;;;;;;2.92;1.77;;;22.00;99.90;;;;;;1042872;28;20654;-67
2022/07/11 00:40:32;;;;;;;3.40;1.40;;;22.00;99.90;;;;;;1043191;28;20071;-67
2022/07/11 00:41:02;;;;;;;4.20;1.90;;;22.00;99.90;;;;;;1042421;28;20009;-67
2022/07/11 00:41:33;;;;;;;3.13;2.00;;;22.00;99.90;;;;;;1042716;28;20016;-67
2022/07/11 00:42:04;;;;;;;2.80;1.70;;;22.00;99.90;;;;;;1042634;28;20341;-68
2022/07/11 00:42:35;;;;;;;2.80;1.53;;;22.00;99.90;;;;;;1042706;28;20021;-68
2022/07/11 00:43:06;;;;;;;4.38;1.88;;;22.00;99.90;;;;;;1043012;28;20108;-68
2022/07/11 00:43:38;;;;;;;5.20;1.63;;;22.00;99.90;;;;;;1043030;28;20043;-67
2022/07/11 00:44:09;;;;;;;4.00;1.60;;;22.00;99.90;;;;;;1042943;28;20021;-67
2022/07/11 00:44:40;;;;;;;4.90;1.75;;;22.00;99.90;;;;;;1042745;28;20021;-67
2022/07/11 00:45:10;;;;;;;3.30;1.73;;;22.00;99.90;;;;;;1042452;28;20037;-69
2022/07/11 00:45:41;;;;;;;2.87;1.60;;;22.00;99.90;;;;;;1042782;28;20021;-67
2022/07/11 00:46:12;;;;;;;5.80;2.73;;;22.00;99.90;;;;;;1042559;28;20523;-68
2022/07/11 00:46:42;;;;;;;2.93;1.77;;;22.00;99.90;;;;;;1043241;28;20595;-68
2022/07/11 00:47:13;;;;;;;3.57;1.90;;;22.00;99.90;;;;;;1042467;28;21283;-67
2022/07/11 00:47:43;;;;;;;4.33;1.63;;;22.00;99.90;;;;;;1042775;28;20803;-68
2022/07/11 00:48:14;;;;;;;3.37;1.57;;;22.00;99.90;;;;;;1042668;28;20088;-67
2022/07/11 00:48:45;;;;;;;2.90;2.10;;;22.00;99.90;;;;;;1042883;28;20028;-67
2022/07/11 00:49:15;;;;;;;2.77;1.40;;;22.00;99.90;;;;;;1042081;28;20013;-67
2022/07/11 00:49:46;;;;;;;3.00;1.40;;;22.00;99.90;;;;;;1042719;28;20016;-67
2022/07/11 00:50:19;;;;;;;2.93;1.37;;;22.00;99.90;;;;;;1042500;28;20028;-67
2022/07/11 00:50:50;;;;;;;4.20;1.75;;;22.00;99.90;;;;;;1043226;28;20052;-69
2022/07/11 00:51:22;;;;;;;2.70;1.90;;;22.00;99.90;;;;;;1046687;28;20086;-67
2022/07/11 00:51:53;;;;;;;5.82;1.95;;;22.00;99.90;;;;;;1046097;28;20119;-68
2022/07/11 00:52:25;;;;;;;3.47;1.52;;;22.00;99.90;;;;;;1046646;28;20028;-68
2022/07/11 00:52:57;;;;;;;2.80;1.70;;;22.00;99.90;;;;;;1042649;28;20115;-67
2022/07/11 00:53:29;;;;;;;2.90;1.38;;;21.90;99.90;;;;;;1042592;28;20028;-67
2022/07/11 00:54:00;;;;;;;2.95;1.73;;;21.90;99.90;;;;;;1042912;28;20456;-68
2022/07/11 00:54:31;;;;;;;3.75;1.65;;;21.90;99.90;;;;;;1042909;28;20099;-67
2022/07/11 00:55:04;;;;;;;2.83;1.80;;;22.00;99.90;;;;;;1042839;28;20456;-69
2022/07/11 00:55:35;;;;;;;2.30;1.25;;;21.90;99.90;;;;;;1042343;28;20592;-68
2022/07/11 00:56:07;;;;;;;1.70;1.50;;;21.90;99.90;;;;;;1042773;28;20544;-69
2022/07/11 00:56:38;;;;;;;3.58;1.33;;;21.90;99.90;;;;;;1042418;28;20027;-68
2022/07/11 00:57:09;;;;;;;6.35;1.65;;;21.90;99.90;;;;;;1042747;28;20031;-67
2022/07/11 00:57:40;;;;;;;4.47;1.88;;;21.90;99.90;;;;;;1038203;28;20384;-67
2022/07/11 00:58:12;;;;;;;2.20;1.80;;;21.90;99.90;;;;;;1039133;28;20492;-67
2022/07/11 00:58:43;;;;;;;2.15;1.40;;;21.90;99.90;;;;;;1042271;28;20706;-69
2022/07/11 00:59:16;;;;;;;4.57;1.63;;;21.90;99.90;;;;;;1042854;28;20362;-68
2022/07/11 00:59:47;;;;;;;2.63;1.40;;;21.90;99.90;;;;;;1042624;28;20085;-68
2022/07/11 01:00:18;;;;;;;2.75;1.70;;;21.90;99.90;;;;;;1042798;28;20021;-67
2022/07/11 01:00:49;;;;;;;3.80;1.80;;;21.90;99.90;;;;;;1042685;28;20021;-68
2022/07/11 01:01:21;;;;;;;3.78;1.83;;;21.90;99.90;;;;;;1046867;28;20480;-67
2022/07/11 01:01:51;;;;;;;3.33;1.90;;;21.90;99.90;;;;;;1041712;28;20150;-67
2022/07/11 01:02:22;;;;;;;4.00;1.47;;;21.90;99.90;;;;;;1042923;28;20054;-67
2022/07/11 01:02:52;;;;;;;3.13;1.50;;;21.90;99.90;;;;;;1038224;28;20018;-67
2022/07/11 01:03:23;;;;;;;2.53;1.53;;;21.90;99.90;;;;;;1038629;28;20574;-67
2022/07/11 01:03:54;;;;;;;3.97;1.60;;;21.90;99.90;;;;;;1038279;28;20697;-68
2022/07/11 01:04:24;;;;;;;3.13;1.53;;;21.90;99.90;;;;;;1038934;28;20739;-67
2022/07/11 01:04:56;;;;;;;3.57;1.63;;;21.90;99.90;;;;;;1042332;28;20689;-67
2022/07/11 01:05:27;;;;;;;2.40;1.52;;;21.90;99.90;;;;;;1043097;28;20203;-67
2022/07/11 01:05:57;;;;;;;5.18;2.13;;;21.90;99.90;;;;;;1042377;28;20013;-67
2022/07/11 01:06:28;;;;;;;4.63;1.90;;;21.90;99.90;;;;;;1042967;28;20662;-67
2022/07/11 01:06:58;;;;;;;4.73;1.70;;;21.90;99.90;;;;;;1042355;28;20020;-68
2022/07/11 01:07:30;;;;;;;4.50;1.90;;;21.90;99.90;;;;;;1042861;28;20018;-67
2022/07/11 01:08:00;;;;;;;4.50;1.90;;;21.90;99.90;;;;;;1042321;28;20059;-67
2022/07/11 01:08:32;;;;;;;2.77;1.87;;;21.90;99.90;;;;;;1042714;28;20039;-67
2022/07/11 01:09:03;;;;;;;2.45;1.20;;;21.90;99.90;;;;;;1043372;28;20029;-68
2022/07/11 01:09:34;;;;;;;2.43;1.43;;;21.90;99.90;;;;;;1046747;28;20013;-68
2022/07/11 01:10:05;;;;;;;3.00;1.50;;;21.90;99.90;;;;;;1046769;28;20005;-68
2022/07/11 01:10:36;;;;;;;3.85;1.65;;;21.90;99.90;;;;;;1042762;28;20013;-68
2022/07/11 01:11:18;;;;;;;2.00;1.27;;;21.90;99.90;;;;;;1046805;28;20091;-68
2022/07/11 01:11:49;;;;;;;2.17;1.40;;;21.90;99.90;;;;;;1046832;28;20044;-67
2022/07/11 01:12:20;;;;;;;2.23;1.43;;;21.90;99.90;;;;;;1046861;28;20020;-66
2022/07/11 01:12:50;;;;;;;3.43;1.73;;;21.90;99.90;;;;;;1046571;28;20027;-67
2022/07/11 01:13:22;;;;;;;3.03;1.37;;;21.90;99.90;;;;;;1046823;28;20091;-68
2022/07/11 01:13:53;;;;;;;5.28;1.75;;;21.90;99.90;;;;;;1045627;28;20025;-68
2022/07/11 01:14:24;;;;;;;2.40;1.27;;;21.90;99.90;;;;;;1042642;28;20096;-68
2022/07/11 01:14:56;;;;;;;1.83;1.40;;;21.90;99.90;;;;;;1043091;28;20634;-68
2022/07/11 01:15:27;;;;;;;2.83;1.45;;;21.90;99.90;;;;;;1042412;28;20025;-67
2022/07/11 01:16:34;;;;;;;2.90;1.50;;;21.90;99.90;;;;;;1042555;28;20024;-67
2022/07/11 01:17:04;;;;;;;2.80;1.92;;;21.90;99.90;;;;;;1039662;28;20036;-66
2022/07/11 01:17:35;;;;;;;3.20;1.70;;;21.90;99.90;;;;;;1042517;28;20012;-67
2022/07/11 01:18:05;;;;;;;2.37;1.60;;;21.90;99.90;;;;;;1042586;28;20013;-68
2022/07/11 01:18:36;;;;;;;3.00;1.70;;;21.90;99.90;;;;;;1042345;28;20055;-67
2022/07/11 01:19:07;;;;;;;3.17;1.60;;;21.90;99.90;;;;;;1038689;28;20319;-67
2022/07/11 01:19:38;;;;;;;4.90;1.40;;;21.90;99.90;;;;;;1034193;28;20013;-67
2022/07/11 01:20:09;;;;;;;2.20;1.50;;;21.90;99.90;;;;;;1038634;28;20037;-67
2022/07/11 01:20:40;;;;;;;2.75;1.52;;;21.90;99.90;;;;;;1034443;28;20022;-66
2022/07/11 01:21:32;;;;;;;2.10;1.23;;;21.90;99.90;;;;;;1038764;28;20024;-67
2022/07/11 01:22:03;;;;;;;3.78;1.90;;;21.90;99.90;;;;;;1042174;28;20441;-67
2022/07/11 01:22:38;;;;;;;2.95;1.73;;;21.90;99.90;;;;;;1042703;28;20027;-67
2022/07/11 01:23:09;;;;;;;2.95;1.65;;;21.90;99.90;;;;;;1042495;28;20082;-67
2022/07/11 01:23:40;;;;;;;2.63;1.53;;;21.90;99.90;;;;;;1042511;28;20087;-69
2022/07/11 01:24:10;;;;;;;4.60;1.40;;;21.90;99.90;;;;;;1042539;28;20352;-67
2022/07/11 01:24:42;;;;;;;2.77;1.43;;;21.90;99.90;;;;;;1042580;28;20710;-67
2022/07/11 01:25:29;;;;;;;2.95;1.33;;;21.90;99.90;;;;;;1042711;28;20400;-67
2022/07/11 01:26:00;;;;;;;5.38;1.85;;;21.90;99.90;;;;;;1046419;28;20421;-67
2022/07/11 01:26:32;;;;;;;4.17;2.10;;;21.90;99.90;;;;;;1044474;28;20803;-68
2022/07/11 01:27:04;;;;;;;3.35;1.92;;;21.90;99.90;;;;;;1042851;28;20025;-69
2022/07/11 01:27:35;;;;;;;2.75;1.52;;;21.90;99.90;;;;;;1042587;28;20035;-68
2022/07/11 01:28:06;;;;;;;3.13;1.48;;;21.90;99.90;;;;;;1042330;28;20023;-68
2022/07/11 01:28:37;;;;;;;2.85;1.60;;;21.90;99.90;;;;;;1042553;28;20024;-68
2022/07/11 01:29:14;;;;;;;2.00;1.20;;;21.90;99.90;;;;;;1042434;28;20143;-68
2022/07/11 01:29:44;;;;;;;4.03;1.98;;;21.90;99.90;;;;;;1042967;28;20021;-68
2022/07/11 01:30:15;;;;;;;6.30;2.17;;;21.90;99.90;;;;;;1043149;28;20381;-67
2022/07/11 01:30:46;;;;;;;3.10;1.30;;;21.90;99.90;;;;;;1039342;28;20440;-67
2022/07/11 01:31:16;;;;;;;3.70;1.80;;;21.80;99.90;;;;;;1039258;28;20256;-67
2022/07/11 01:31:47;;;;;;;2.63;1.70;;;21.80;99.90;;;;;;1039647;28;20029;-67
2022/07/11 01:32:18;;;;;;;3.30;1.53;;;21.80;99.90;;;;;;1043305;28;20045;-67
2022/07/11 01:32:51;;;;;;;4.45;1.60;;;21.80;99.90;;;;;;1043807;28;20040;-67
2022/07/11 01:33:22;;;;;;;3.55;1.67;;;21.80;99.90;;;;;;1043786;28;20048;-68
2022/07/11 01:33:53;;;;;;;4.05;1.50;;;21.80;99.90;;;;;;1043264;28;20531;-67
2022/07/11 01:34:24;;;;;;;3.85;1.42;;;21.80;99.90;;;;;;1043451;28;20033;-67
2022/07/11 01:34:55;;;;;;;3.37;1.43;;;21.80;99.90;;;;;;1043317;28;20084;-67
2022/07/11 01:35:26;;;;;;;3.13;1.43;;;21.80;99.90;;;;;;1043715;28;20095;-68
2022/07/11 01:35:57;;;;;;;2.75;1.50;;;21.80;99.90;;;;;;1047337;28;20028;-67
2022/07/11 01:36:27;;;;;;;3.27;1.50;;;21.80;99.90;;;;;;1043626;28;20021;-67
2022/07/11 01:36:58;;;;;;;3.27;1.67;;;21.80;99.90;;;;;;1043750;28;20090;-67
2022/07/11 01:37:28;;;;;;;6.03;1.47;;;21.80;99.90;;;;;;1043587;28;20620;-67
2022/07/11 01:37:59;;;;;;;4.37;1.90;;;21.80;99.90;;;;;;1043735;28;20052;-67
2022/07/11 01:38:30;;;;;;;2.40;1.60;;;21.80;99.90;;;;;;1043245;28;20017;-69
2022/07/11 01:39:01;;;;;;;2.23;1.33;;;21.80;99.90;;;;;;1043376;28;20583;-67
2022/07/11 01:39:31;;;;;;;3.07;1.50;;;21.80;99.90;;;;;;1039144;28;20131;-67
2022/07/11 01:40:02;;;;;;;3.13;1.80;;;21.80;99.90;;;;;;1039367;28;20112;-68
2022/07/11 01:40:33;;;;;;;2.45;1.40;;;21.80;99.90;;;;;;1039323;28;20051;-69
2022/07/11 01:41:04;;;;;;;3.23;1.63;;;21.80;99.90;;;;;;1043257;28;20040;-68
2022/07/11 01:41:35;;;;;;;2.53;1.52;;;21.80;99.90;;;;;;1043401;28;20317;-68
2022/07/11 01:42:05;;;;;;;2.97;1.50;;;21.80;99.90;;;;;;1043419;28;20094;-67
2022/07/11 01:42:36;;;;;;;3.77;1.77;;;21.80;99.90;;;;;;1043364;28;20017;-67
2022/07/11 01:43:07;;;;;;;3.17;1.60;;;21.80;99.90;;;;;;1043319;28;20036;-68
2022/07/11 01:43:37;;;;;;;2.37;1.40;;;21.80;99.90;;;;;;1043339;28;20475;-68
2022/07/11 01:44:08;;;;;;;2.93;1.33;;;21.80;99.90;;;;;;1043327;28;20009;-67
2022/07/11 01:44:39;;;;;;;2.70;1.70;;;21.80;99.90;;;;;;1043280;28;20096;-67
2022/07/11 01:45:11;;;;;;;2.43;1.37;;;21.80;99.90;;;;;;1043393;28;20439;-68
2022/07/11 01:45:41;;;;;;;1.40;1.20;;;21.80;99.90;;;;;;1044285;28;20074;-66
2022/07/11 01:46:12;;;;;;;2.57;1.40;;;21.80;99.90;;;;;;1043580;28;20028;-67
2022/07/11 01:46:42;;;;;;;3.77;1.80;;;21.80;99.90;;;;;;1047604;28;20021;-67
2022/07/11 01:47:13;;;;;;;2.67;1.60;;;21.80;99.90;;;;;;1047250;28;20467;-67
2022/07/11 01:47:44;;;;;;;2.83;1.52;;;21.80;99.90;;;;;;1047420;28;20484;-67
2022/07/11 01:48:15;;;;;;;2.75;1.65;;;21.80;99.90;;;;;;1047231;28;20334;-67
2022/07/11 01:48:46;;;;;;;2.90;1.60;;;21.80;99.90;;;;;;1047441;28;20482;-70
2022/07/11 01:49:16;;;;;;;3.10;1.57;;;21.80;99.90;;;;;;1047408;28;20012;-68
2022/07/11 01:49:47;;;;;;;2.93;1.37;;;21.80;99.90;;;;;;1047523;28;20820;-68
2022/07/11 01:50:18;;;;;;;3.13;1.50;;;21.80;99.90;;;;;;1047151;28;20103;-69
2022/07/11 01:50:49;;;;;;;2.13;1.27;;;21.80;99.90;;;;;;1047533;28;20013;-68
2022/07/11 01:51:22;;;;;;;4.43;1.60;;;21.90;99.90;;;;;;1047354;28;20013;-68
2022/07/11 01:51:52;;;;;;;1.50;1.25;;;21.90;99.90;;;;;;1047392;28;20036;-69
2022/07/11 01:52:23;;;;;;;2.47;1.30;;;21.90;99.90;;;;;;1047629;28;20366;-68
2022/07/11 01:52:54;;;;;;;2.70;1.50;;;21.90;99.90;;;;;;1043486;28;20116;-69
2022/07/11 01:53:25;;;;;;;2.55;1.33;;;21.90;99.90;;;;;;1047340;28;20119;-69
2022/07/11 01:53:55;;;;;;;4.73;1.70;;;21.90;99.90;;;;;;1047416;28;20051;-68
2022/07/11 01:54:26;;;;;;;5.73;1.90;;;21.90;99.90;;;;;;1047328;28;20021;-69
2022/07/11 01:54:57;;;;;;;3.13;1.63;;;21.90;99.90;;;;;;1047453;28;20407;-68
2022/07/11 01:55:28;;;;;;;3.93;1.23;;;21.90;99.90;;;;;;1047447;28;20016;-69
2022/07/11 01:55:58;;;;;;;3.03;1.50;;;21.90;99.90;;;;;;1047538;28;20514;-68
2022/07/11 01:56:32;;;;;;;2.53;1.37;;;21.90;99.90;;;;;;1047479;28;20848;-68
2022/07/11 01:57:03;;;;;;;2.80;1.63;;;21.90;99.90;;;;;;1047449;28;20012;-68
2022/07/11 01:57:33;;;;;;;2.77;1.50;;;21.80;99.90;;;;;;1047285;28;20035;-69
2022/07/11 01:58:04;;;;;;;4.00;1.47;;;21.80;99.90;;;;;;1047514;28;20547;-69
2022/07/11 01:58:35;;;;;;;2.27;1.57;;;21.80;99.90;;;;;;1047308;28;20448;-68
2022/07/11 01:59:06;;;;;;;3.38;1.58;;;21.80;99.90;;;;;;1047590;28;20703;-68
2022/07/11 01:59:37;;;;;;;3.67;1.67;;;21.80;99.90;;;;;;1046849;28;20012;-68
2022/07/11 02:00:11;;;;;;;4.07;1.80;;;21.80;99.90;;;;;;1043698;28;20012;-68
2022/07/11 02:00:42;;;;;;;2.97;1.20;;;21.80;99.90;;;;;;1043815;28;20013;-68
2022/07/11 02:01:13;;;;;;;2.05;1.23;;;21.80;99.90;;;;;;1043901;28;20363;-70
2022/07/11 02:01:44;;;;;;;2.97;1.58;;;21.80;99.90;;;;;;1046748;28;20024;-68
2022/07/11 02:02:15;;;;;;;4.23;1.80;;;21.80;99.90;;;;;;1047607;28;20046;-68
2022/07/11 02:02:46;;;;;;;2.53;1.30;;;21.80;99.90;;;;;;1043343;28;20032;-69
2022/07/11 02:03:17;;;;;;;4.17;1.63;;;21.80;99.90;;;;;;1047377;28;20028;-68
2022/07/11 02:03:48;;;;;;;2.23;1.60;;;21.80;99.90;;;;;;1047154;28;20031;-68
2022/07/11 02:04:19;;;;;;;2.97;1.45;;;21.80;99.90;;;;;;1047526;28;20021;-68
2022/07/11 02:04:50;;;;;;;3.40;1.52;;;21.80;99.90;;;;;;1047036;28;20130;-70
2022/07/11 02:05:21;;;;;;;3.15;1.67;;;21.80;99.90;;;;;;1047724;28;20013;-68
2022/07/11 02:05:51;;;;;;;5.30;1.50;;;21.80;99.90;;;;;;1046856;28;20025;-69
2022/07/11 02:06:22;;;;;;;2.83;1.50;;;21.80;99.90;;;;;;1047554;28;20020;-69
2022/07/11 02:06:53;;;;;;;3.27;1.83;;;21.80;99.90;;;;;;1047155;28;20052;-69
2022/07/11 02:08:13;;;;;;;2.72;1.60;;;21.80;99.90;;;;;;1045163;28;20097;-68
2022/07/11 02:08:44;;;;;;;1.97;1.60;;;21.80;99.90;;;;;;1039215;28;20021;-68
2022/07/11 02:09:15;;;;;;;4.20;1.40;;;21.80;99.90;;;;;;1044235;28;20112;-68
2022/07/11 02:09:45;;;;;;;1.50;1.37;;;21.80;99.90;;;;;;1047432;28;20020;-68
2022/07/11 02:10:16;;;;;;;1.03;0.90;;;21.80;99.90;;;;;;1042944;28;20590;-66
2022/07/11 02:10:48;;;;;;;2.63;1.30;;;21.80;99.90;;;;;;1043394;28;20039;-69
2022/07/11 02:11:19;;;;;;;1.95;1.20;;;21.80;99.90;;;;;;1043530;28;20504;-67
2022/07/11 02:11:50;;;;;;;1.47;1.03;;;21.80;99.90;;;;;;1047213;28;20495;-68
2022/07/11 02:12:20;;;;;;;1.70;1.43;;;21.80;99.90;;;;;;1043113;28;20083;-66
2022/07/11 02:12:51;;;;;;;3.43;1.63;;;21.80;99.90;;;;;;1043244;28;20055;-66
2022/07/11 02:13:25;;;;;;;1.77;1.23;;;21.80;99.90;;;;;;1043278;28;20031;-67
2022/07/11 02:13:56;;;;;;;2.30;1.40;;;21.80;99.90;;;;;;1043284;28;20175;-68
2022/07/11 02:14:27;;;;;;;2.78;1.40;;;21.80;99.90;;;;;;1043699;28;20012;-67
2022/07/11 02:14:57;;;;;;;1.50;1.30;;;21.80;99.90;;;;;;1043577;28;20021;-67
2022/07/11 02:15:29;;;;;;;2.00;1.07;;;21.80;99.90;;;;;;1043636;28;20522;-67
2022/07/11 02:16:02;;;;;;;2.25;1.50;;;21.80;99.90;;;;;;1043678;28;20040;-67
2022/07/11 02:16:32;;;;;;;2.35;1.40;;;21.80;99.90;;;;;;1043059;28;20021;-68
2022/07/11 02:17:03;;;;;;;2.07;1.63;;;21.80;99.90;;;;;;1043374;28;20025;-67
2022/07/11 02:17:34;;;;;;;3.30;1.40;;;21.80;99.90;;;;;;1043107;28;20029;-68
2022/07/11 02:18:05;;;;;;;1.50;1.30;;;21.70;99.90;;;;;;1043418;28;20021;-67
2022/07/11 02:18:35;;;;;;;2.17;1.35;;;21.80;99.90;;;;;;1043020;28;20376;-66
2022/07/11 02:19:07;;;;;;;1.63;1.33;;;21.70;99.90;;;;;;1043454;28;20021;-66
2022/07/11 02:19:37;;;;;;;2.72;1.55;;;21.70;99.90;;;;;;1043176;28;20020;-67
2022/07/11 02:20:08;;;;;;;2.20;1.40;;;21.70;99.90;;;;;;1039327;28;20022;-68
2022/07/11 02:20:40;;;;;;;2.63;1.63;;;21.70;99.90;;;;;;1043182;28;20025;-68
2022/07/11 02:21:12;;;;;;;1.60;1.23;;;21.70;99.90;;;;;;1039172;28;20036;-67
2022/07/11 02:21:43;;;;;;;3.17;1.20;;;21.70;99.90;;;;;;1039448;28;20029;-67
2022/07/11 02:22:15;;;;;;;2.07;1.20;;;21.70;99.90;;;;;;1043375;28;20135;-67
2022/07/11 02:22:45;;;;;;;1.58;1.10;;;21.70;99.90;;;;;;1039251;28;20037;-67
2022/07/11 02:23:17;;;;;;;2.17;1.10;;;21.70;99.90;;;;;;1043375;28;20013;-68
2022/07/11 02:23:48;;;;;;;2.13;1.17;;;21.70;99.90;;;;;;1043079;28;20096;-68
2022/07/11 02:24:19;;;;;;;1.33;1.20;;;21.70;99.90;;;;;;1039366;28;20143;-67
2022/07/11 02:24:50;;;;;;;2.33;1.15;;;21.70;99.90;;;;;;1038756;28;20017;-67
2022/07/11 02:25:22;;;;;;;3.67;1.23;;;21.70;99.90;;;;;;1039335;28;20037;-67
2022/07/11 02:25:53;;;;;;;2.17;1.13;;;21.80;99.90;;;;;;1039107;28;20026;-68
2022/07/11 02:26:23;;;;;;;2.60;1.07;;;21.70;99.90;;;;;;1043520;28;20044;-67
2022/07/11 02:26:54;;;;;;;2.10;1.47;;;21.70;99.90;;;;;;1039165;28;20022;-68
2022/07/11 02:27:24;;;;;;;1.10;1.00;;;21.70;99.90;;;;;;1039125;28;20073;-68
2022/07/11 02:27:55;;;;;;;1.70;1.10;;;21.70;99.90;;;;;;1038863;28;20029;-68
2022/07/11 02:28:26;;;;;;;2.05;1.05;;;21.80;99.90;;;;;;1039200;28;20029;-68
2022/07/11 02:28:57;;;;;;;2.43;1.20;;;21.80;99.90;;;;;;1038945;28;20033;-69
2022/07/11 02:29:28;;;;;;;2.00;0.90;;;21.80;99.90;;;;;;1043335;28;20025;-68
2022/07/11 02:29:58;;;;;;;2.87;1.10;;;21.80;99.90;;;;;;1043090;28;20043;-67
2022/07/11 02:30:29;;;;;;;2.63;1.17;;;21.80;99.90;;;;;;1043338;28;20090;-67
2022/07/11 02:31:00;;;;;;;2.50;1.20;;;21.80;99.90;;;;;;1039164;28;20029;-69
2022/07/11 02:31:31;;;;;;;1.50;1.00;;;21.80;99.90;;;;;;1043128;28;20033;-69
2022/07/11 02:32:03;;;;;;;1.97;1.10;;;21.80;99.90;;;;;;1043148;28;20392;-67
2022/07/11 02:32:34;;;;;;;4.68;1.50;;;21.80;99.90;;;;;;1043575;28;20021;-67
2022/07/11 02:33:07;;;;;;;2.53;1.37;;;21.80;99.90;;;;;;1042874;28;20092;-70
2022/07/11 02:33:37;;;;;;;1.80;1.20;;;21.80;99.90;;;;;;1035499;28;20108;-67
2022/07/11 02:34:08;;;;;;;1.63;1.00;;;21.80;99.90;;;;;;1039098;28;20026;-68
2022/07/11 02:34:38;;;;;;;1.43;1.00;;;21.80;99.90;;;;;;1039486;28;20135;-67
2022/07/11 02:35:09;;;;;;;1.13;0.90;;;21.80;99.90;;;;;;1043314;28;20021;-67
2022/07/11 02:35:39;;;;;;;3.43;1.30;;;21.80;99.90;;;;;;1043059;28;20021;-67
2022/07/11 02:36:10;;;;;;;1.37;0.80;;;21.80;99.90;;;;;;1043294;28;20040;-67
2022/07/11 02:36:41;;;;;;;1.43;0.80;;;21.80;99.90;;;;;;1043120;28;20067;-67
2022/07/11 02:37:12;;;;;;;1.50;1.00;;;21.80;99.90;;;;;;1043136;28;20063;-68
2022/07/11 02:37:43;;;;;;;1.85;1.15;;;21.80;99.90;;;;;;1042780;28;20267;-68
2022/07/11 02:38:17;;;;;;;2.03;1.27;;;21.80;99.90;;;;;;1043355;28;20021;-67
2022/07/11 02:38:48;;;;;;;1.42;1.08;;;21.70;99.90;;;;;;1042968;28;20033;-68
2022/07/11 02:39:18;;;;;;;1.20;0.90;;;21.70;99.90;;;;;;1043413;28;20024;-67
2022/07/11 02:39:49;;;;;;;0.90;0.90;;;21.70;99.90;;;;;;1043358;28;20025;-67
2022/07/11 02:40:19;;;;;;;1.57;0.90;;;21.70;99.90;;;;;;1043879;28;20199;-68
2022/07/11 02:40:50;;;;;;;2.17;1.23;;;21.70;99.90;;;;;;1042888;28;20017;-67
2022/07/11 02:41:20;;;;;;;1.30;0.80;;;21.70;99.90;;;;;;1038437;28;20030;-68
2022/07/11 02:41:52;;;;;;;1.67;0.97;;;21.70;99.90;;;;;;1039863;28;20030;-69
2022/07/11 02:42:23;;;;;;;1.15;0.98;;;21.70;99.90;;;;;;1047366;28;20150;-70
2022/07/11 02:42:55;;;;;;;3.25;1.23;;;21.70;99.90;;;;;;1042633;28;20017;-69
2022/07/11 02:43:26;;;;;;;2.30;0.85;;;21.70;99.90;;;;;;1042924;28;20086;-68
2022/07/11 02:43:57;;;;;;;2.08;1.10;;;21.70;99.90;;;;;;1039032;28;20028;-68